THY6CF LTFM-LOWS
Flight info
| Callsign | THY6CF |
|---|---|
| Flight time | 2h 0m |
| Altitude | 36000 |
| Route | VADEN1D/35L VADEN N618 BAKLO DCT XANEX DCT BESLI DCT UTEKA DCT BABIT DCT NOHAT DCT GOTAR DCT ABRUK DCT NUBRA |
| Aircraft | B77W/H-SDE1E2E3FGHIJ2J3J4J5M1RWXY/LB1D1 |
Departure
| Time | 2026-05-07 15:20 |
|---|---|
| Airport | İstanbul Airport (LTFM) |
Arrival
| Time | 2026-05-07 17:21 |
|---|---|
| Airport | Salzburg Airport (LOWS) |
| Time | Latitude | Longitude | Altitude | Speed | Heading |
|---|---|---|---|---|---|
| 2026-05-07 14:46 | 41.26602 | 28.74116 | 318 ft | 0 kts | 89° |
| 2026-05-07 15:04 | 41.26601 | 28.74094 | 318 ft | 4 kts | 81° |
| 2026-05-07 15:04 | 41.26595 | 28.74062 | 316 ft | 4 kts | 61° |
| 2026-05-07 15:04 | 41.26580 | 28.74036 | 315 ft | 4 kts | 36° |
| 2026-05-07 15:04 | 41.26560 | 28.74022 | 317 ft | 4 kts | 10° |
| 2026-05-07 15:05 | 41.26545 | 28.74020 | 315 ft | 0 kts | 359° |
| 2026-05-07 15:09 | 41.26546 | 28.74020 | 318 ft | 2 kts | 359° |
| 2026-05-07 15:10 | 41.26595 | 28.74019 | 318 ft | 9 kts | 359° |
| 2026-05-07 15:10 | 41.26654 | 28.74018 | 318 ft | 9 kts | 359° |
| 2026-05-07 15:10 | 41.26714 | 28.74017 | 318 ft | 9 kts | 359° |
| 2026-05-07 15:10 | 41.26774 | 28.74016 | 318 ft | 9 kts | 359° |
| 2026-05-07 15:11 | 41.26833 | 28.74015 | 318 ft | 9 kts | 359° |
| 2026-05-07 15:11 | 41.26893 | 28.74014 | 318 ft | 9 kts | 359° |
| 2026-05-07 15:11 | 41.26955 | 28.74014 | 317 ft | 9 kts | 359° |
| 2026-05-07 15:11 | 41.27020 | 28.74008 | 317 ft | 10 kts | 341° |
| 2026-05-07 15:12 | 41.27050 | 28.73929 | 315 ft | 10 kts | 275° |
| 2026-05-07 15:12 | 41.27050 | 28.73835 | 315 ft | 10 kts | 270° |
| 2026-05-07 15:12 | 41.27049 | 28.73736 | 315 ft | 11 kts | 269° |
| 2026-05-07 15:12 | 41.27048 | 28.73635 | 317 ft | 11 kts | 269° |
| 2026-05-07 15:13 | 41.27046 | 28.73531 | 318 ft | 11 kts | 269° |
| 2026-05-07 15:13 | 41.27045 | 28.73428 | 317 ft | 11 kts | 269° |
| 2026-05-07 15:13 | 41.27043 | 28.73325 | 315 ft | 11 kts | 269° |
| 2026-05-07 15:13 | 41.27043 | 28.73221 | 314 ft | 12 kts | 269° |
| 2026-05-07 15:14 | 41.27041 | 28.73101 | 311 ft | 14 kts | 269° |
| 2026-05-07 15:14 | 41.27026 | 28.72994 | 313 ft | 8 kts | 221° |
| 2026-05-07 15:14 | 41.26970 | 28.72986 | 315 ft | 8 kts | 178° |
| 2026-05-07 15:14 | 41.26913 | 28.72988 | 314 ft | 8 kts | 179° |
| 2026-05-07 15:15 | 41.26855 | 28.72989 | 316 ft | 8 kts | 179° |
| 2026-05-07 15:15 | 41.26797 | 28.72990 | 316 ft | 8 kts | 179° |
| 2026-05-07 15:15 | 41.26746 | 28.72982 | 316 ft | 7 kts | 205° |
| 2026-05-07 15:15 | 41.26722 | 28.72931 | 314 ft | 0 kts | 259° |
| 2026-05-07 15:17 | 41.26719 | 28.72905 | 313 ft | 7 kts | 262° |
| 2026-05-07 15:17 | 41.26717 | 28.72834 | 313 ft | 10 kts | 269° |
| 2026-05-07 15:17 | 41.26716 | 28.72749 | 314 ft | 8 kts | 269° |
| 2026-05-07 15:18 | 41.26715 | 28.72691 | 315 ft | 6 kts | 269° |
| 2026-05-07 15:18 | 41.26714 | 28.72639 | 315 ft | 6 kts | 269° |
| 2026-05-07 15:18 | 41.26714 | 28.72584 | 315 ft | 6 kts | 269° |
| 2026-05-07 15:18 | 41.26724 | 28.72535 | 314 ft | 4 kts | 314° |
| 2026-05-07 15:19 | 41.26757 | 28.72519 | 315 ft | 6 kts | 348° |
| 2026-05-07 15:19 | 41.26803 | 28.72515 | 313 ft | 7 kts | 358° |
| 2026-05-07 15:19 | 41.26937 | 28.72512 | 311 ft | 36 kts | 359° |
| 2026-05-07 15:19 | 41.27436 | 28.72502 | 295 ft | 110 kts | 359° |
| 2026-05-07 15:20 | 41.28433 | 28.72484 | 267 ft | 174 kts | 360° |
| 2026-05-07 15:20 | 41.29720 | 28.72456 | 759 ft | 184 kts | 0° |
| 2026-05-07 15:20 | 41.31039 | 28.72438 | 1386 ft | 198 kts | 360° |
| 2026-05-07 15:20 | 41.31964 | 28.72449 | 1849 ft | 200 kts | 360° |
| 2026-05-07 15:21 | 41.33366 | 28.72486 | 2750 ft | 199 kts | 0° |
| 2026-05-07 15:21 | 41.34767 | 28.72581 | 3302 ft | 209 kts | 358° |
| 2026-05-07 15:21 | 41.36273 | 28.72614 | 3574 ft | 231 kts | 355° |
| 2026-05-07 15:21 | 41.37891 | 28.72099 | 3919 ft | 241 kts | 324° |
| 2026-05-07 15:22 | 41.39118 | 28.70600 | 4595 ft | 243 kts | 307° |
| 2026-05-07 15:22 | 41.40072 | 28.68705 | 5018 ft | 257 kts | 300° |
| 2026-05-07 15:22 | 41.40992 | 28.66647 | 4999 ft | 259 kts | 299° |
| 2026-05-07 15:22 | 41.41905 | 28.64571 | 5005 ft | 260 kts | 300° |
| 2026-05-07 15:23 | 41.42821 | 28.62493 | 5000 ft | 259 kts | 300° |
| 2026-05-07 15:23 | 41.43736 | 28.60426 | 4997 ft | 259 kts | 300° |
| 2026-05-07 15:23 | 41.44660 | 28.58351 | 4999 ft | 259 kts | 300° |
| 2026-05-07 15:23 | 41.45582 | 28.56286 | 4999 ft | 260 kts | 300° |
| 2026-05-07 15:24 | 41.46508 | 28.54216 | 4999 ft | 260 kts | 300° |
| 2026-05-07 15:24 | 41.47436 | 28.52147 | 5007 ft | 260 kts | 300° |
| 2026-05-07 15:24 | 41.48379 | 28.50085 | 5005 ft | 260 kts | 301° |
| 2026-05-07 15:24 | 41.49330 | 28.48031 | 5384 ft | 261 kts | 301° |
| 2026-05-07 15:25 | 41.50290 | 28.45961 | 6257 ft | 263 kts | 301° |
| 2026-05-07 15:25 | 41.51255 | 28.43879 | 7086 ft | 265 kts | 301° |
| 2026-05-07 15:25 | 41.52221 | 28.41789 | 7875 ft | 269 kts | 301° |
| 2026-05-07 15:25 | 41.53215 | 28.39637 | 8670 ft | 272 kts | 301° |
| 2026-05-07 15:26 | 41.54210 | 28.37479 | 9464 ft | 275 kts | 301° |
| 2026-05-07 15:26 | 41.55220 | 28.35288 | 10220 ft | 279 kts | 301° |
| 2026-05-07 15:26 | 41.56266 | 28.33016 | 10590 ft | 299 kts | 301° |
| 2026-05-07 15:26 | 41.57402 | 28.30546 | 10788 ft | 325 kts | 301° |
| 2026-05-07 15:27 | 41.58630 | 28.27874 | 10985 ft | 351 kts | 301° |
| 2026-05-07 15:27 | 41.59937 | 28.25026 | 11521 ft | 365 kts | 301° |
| 2026-05-07 15:27 | 41.61265 | 28.22128 | 12283 ft | 374 kts | 301° |
| 2026-05-07 15:27 | 41.62633 | 28.19141 | 13239 ft | 379 kts | 301° |
| 2026-05-07 15:28 | 41.64013 | 28.16126 | 14159 ft | 385 kts | 301° |
| 2026-05-07 15:28 | 41.65425 | 28.13036 | 15021 ft | 390 kts | 301° |
| 2026-05-07 15:28 | 41.66844 | 28.09928 | 15935 ft | 393 kts | 301° |
| 2026-05-07 15:28 | 41.68275 | 28.06790 | 16825 ft | 397 kts | 301° |
| 2026-05-07 15:29 | 41.69722 | 28.03615 | 17696 ft | 402 kts | 301° |
| 2026-05-07 15:29 | 41.71185 | 28.00400 | 18510 ft | 407 kts | 301° |
| 2026-05-07 15:29 | 41.72666 | 27.97143 | 19274 ft | 410 kts | 301° |
| 2026-05-07 15:29 | 41.74154 | 27.93867 | 20081 ft | 413 kts | 302° |
| 2026-05-07 15:30 | 41.75646 | 27.90577 | 20877 ft | 415 kts | 302° |
| 2026-05-07 15:30 | 41.77151 | 27.87255 | 21621 ft | 419 kts | 302° |
| 2026-05-07 15:30 | 41.78667 | 27.83906 | 22347 ft | 422 kts | 302° |
| 2026-05-07 15:30 | 41.80194 | 27.80531 | 23069 ft | 426 kts | 302° |
| 2026-05-07 15:31 | 41.81732 | 27.77126 | 23773 ft | 429 kts | 302° |
| 2026-05-07 15:31 | 41.83276 | 27.73705 | 24105 ft | 430 kts | 302° |
| 2026-05-07 15:31 | 41.84835 | 27.70242 | 24091 ft | 433 kts | 302° |
| 2026-05-07 15:31 | 41.86394 | 27.66778 | 24087 ft | 433 kts | 302° |
| 2026-05-07 15:32 | 41.87951 | 27.63314 | 24083 ft | 433 kts | 302° |
| 2026-05-07 15:32 | 41.89507 | 27.59848 | 24083 ft | 433 kts | 301° |
| 2026-05-07 15:32 | 41.91066 | 27.56373 | 24189 ft | 435 kts | 301° |
| 2026-05-07 15:32 | 41.92628 | 27.52886 | 24820 ft | 437 kts | 301° |
| 2026-05-07 15:33 | 41.94194 | 27.49385 | 25422 ft | 439 kts | 301° |
| 2026-05-07 15:33 | 41.95756 | 27.45893 | 25980 ft | 442 kts | 301° |
| 2026-05-07 15:33 | 41.97345 | 27.42333 | 26500 ft | 446 kts | 301° |
| 2026-05-07 15:33 | 41.98940 | 27.38755 | 27035 ft | 449 kts | 301° |
| 2026-05-07 15:34 | 42.00552 | 27.35134 | 27551 ft | 452 kts | 301° |
| 2026-05-07 15:34 | 42.02169 | 27.31500 | 28053 ft | 455 kts | 301° |
| 2026-05-07 15:34 | 42.03797 | 27.27836 | 28547 ft | 457 kts | 301° |
| 2026-05-07 15:34 | 42.05444 | 27.24152 | 28994 ft | 460 kts | 302° |
| 2026-05-07 15:35 | 42.07260 | 27.20596 | 29416 ft | 463 kts | 307° |
| 2026-05-07 15:35 | 42.09337 | 27.17271 | 29830 ft | 465 kts | 311° |
| 2026-05-07 15:35 | 42.11475 | 27.14095 | 30337 ft | 464 kts | 312° |
| 2026-05-07 15:35 | 42.13675 | 27.10841 | 30899 ft | 461 kts | 311° |
| 2026-05-07 15:36 | 42.15818 | 27.07661 | 31496 ft | 457 kts | 311° |
| 2026-05-07 15:36 | 42.17939 | 27.04496 | 32039 ft | 454 kts | 311° |
| 2026-05-07 15:36 | 42.20049 | 27.01328 | 32527 ft | 452 kts | 310° |
| 2026-05-07 15:36 | 42.22139 | 26.98179 | 32978 ft | 451 kts | 310° |
| 2026-05-07 15:37 | 42.24223 | 26.95029 | 33462 ft | 449 kts | 310° |
| 2026-05-07 15:37 | 42.26304 | 26.91881 | 33924 ft | 448 kts | 310° |
| 2026-05-07 15:37 | 42.28366 | 26.88757 | 34328 ft | 446 kts | 310° |
| 2026-05-07 15:37 | 42.30406 | 26.85663 | 34627 ft | 446 kts | 310° |
| 2026-05-07 15:38 | 42.32503 | 26.82479 | 34917 ft | 447 kts | 310° |
| 2026-05-07 15:38 | 42.34543 | 26.79380 | 35205 ft | 447 kts | 310° |
| 2026-05-07 15:38 | 42.36613 | 26.76231 | 35510 ft | 447 kts | 310° |
| 2026-05-07 15:38 | 42.38679 | 26.73086 | 35808 ft | 447 kts | 310° |
| 2026-05-07 15:39 | 42.40736 | 26.69949 | 35998 ft | 450 kts | 310° |
| 2026-05-07 15:39 | 42.42824 | 26.66763 | 36030 ft | 452 kts | 310° |
| 2026-05-07 15:39 | 42.46993 | 26.60393 | 36057 ft | 449 kts | 309° |
| 2026-05-07 15:40 | 42.51094 | 26.54112 | 36065 ft | 446 kts | 309° |
| 2026-05-07 15:40 | 42.54919 | 26.47512 | 36062 ft | 443 kts | 301° |
| 2026-05-07 15:41 | 42.57915 | 26.40225 | 36065 ft | 442 kts | 297° |
| 2026-05-07 15:41 | 42.60792 | 26.32835 | 36062 ft | 444 kts | 296° |
| 2026-05-07 15:42 | 42.63693 | 26.25408 | 36058 ft | 445 kts | 297° |
| 2026-05-07 15:42 | 42.66610 | 26.17973 | 36054 ft | 447 kts | 297° |
| 2026-05-07 15:43 | 42.69538 | 26.10506 | 36058 ft | 448 kts | 297° |
| 2026-05-07 15:43 | 42.72471 | 26.03009 | 36046 ft | 449 kts | 297° |
| 2026-05-07 15:44 | 42.75401 | 25.95497 | 36049 ft | 449 kts | 296° |
| 2026-05-07 15:44 | 42.78320 | 25.87994 | 36041 ft | 449 kts | 296° |
| 2026-05-07 15:45 | 42.81247 | 25.80450 | 36039 ft | 449 kts | 296° |
| 2026-05-07 15:45 | 42.84154 | 25.72939 | 36037 ft | 449 kts | 296° |
| 2026-05-07 15:46 | 42.88500 | 25.61667 | 36026 ft | 449 kts | 296° |
| 2026-05-07 15:47 | 42.91401 | 25.54124 | 36038 ft | 449 kts | 296° |
| 2026-05-07 15:47 | 42.94294 | 25.46577 | 36040 ft | 449 kts | 296° |
| 2026-05-07 15:48 | 42.97185 | 25.39018 | 36049 ft | 449 kts | 296° |
| 2026-05-07 15:48 | 43.00076 | 25.31435 | 36036 ft | 450 kts | 296° |
| 2026-05-07 15:49 | 43.02968 | 25.23831 | 36050 ft | 451 kts | 295° |
| 2026-05-07 15:49 | 43.05865 | 25.16193 | 36061 ft | 452 kts | 295° |
| 2026-05-07 15:50 | 43.08756 | 25.08550 | 36049 ft | 452 kts | 295° |
| 2026-05-07 15:50 | 43.11639 | 25.00910 | 36049 ft | 453 kts | 295° |
| 2026-05-07 15:51 | 43.14252 | 24.93080 | 36059 ft | 452 kts | 290° |
| 2026-05-07 15:51 | 43.16574 | 24.85121 | 36053 ft | 453 kts | 289° |
| 2026-05-07 15:52 | 43.18899 | 24.77113 | 36060 ft | 453 kts | 289° |
| 2026-05-07 15:52 | 43.21249 | 24.69066 | 36062 ft | 454 kts | 289° |
| 2026-05-07 15:53 | 43.23593 | 24.61049 | 36064 ft | 454 kts | 289° |
| 2026-05-07 15:53 | 43.25947 | 24.52975 | 36059 ft | 455 kts | 289° |
| 2026-05-07 15:54 | 43.28289 | 24.44913 | 36058 ft | 455 kts | 289° |
| 2026-05-07 15:54 | 43.30626 | 24.36842 | 36056 ft | 455 kts | 289° |
| 2026-05-07 15:55 | 43.32958 | 24.28762 | 36056 ft | 455 kts | 289° |
| 2026-05-07 15:55 | 43.35277 | 24.20697 | 36055 ft | 454 kts | 289° |
| 2026-05-07 15:56 | 43.37597 | 24.12607 | 36054 ft | 454 kts | 289° |
| 2026-05-07 15:56 | 43.39904 | 24.04540 | 36060 ft | 453 kts | 289° |
| 2026-05-07 15:57 | 43.42331 | 23.96528 | 36062 ft | 454 kts | 291° |
| 2026-05-07 15:57 | 43.44904 | 23.88609 | 36057 ft | 454 kts | 291° |
| 2026-05-07 15:58 | 43.47456 | 23.80720 | 36059 ft | 453 kts | 291° |
| 2026-05-07 15:58 | 43.50008 | 23.72719 | 36055 ft | 453 kts | 291° |
| 2026-05-07 15:59 | 43.52508 | 23.64813 | 36059 ft | 453 kts | 291° |
| 2026-05-07 15:59 | 43.55019 | 23.56845 | 36061 ft | 453 kts | 291° |
| 2026-05-07 16:00 | 43.57525 | 23.48871 | 36062 ft | 454 kts | 291° |
| 2026-05-07 16:00 | 43.60029 | 23.40877 | 36058 ft | 454 kts | 290° |
| 2026-05-07 16:01 | 43.62532 | 23.32869 | 36061 ft | 454 kts | 290° |
| 2026-05-07 16:01 | 43.65022 | 23.24873 | 36056 ft | 453 kts | 290° |
| 2026-05-07 16:02 | 43.67507 | 23.16870 | 36060 ft | 453 kts | 290° |
| 2026-05-07 16:02 | 43.69987 | 23.08855 | 36062 ft | 454 kts | 290° |
| 2026-05-07 16:03 | 43.72475 | 23.00796 | 36061 ft | 457 kts | 290° |
| 2026-05-07 16:03 | 43.74965 | 22.92703 | 36060 ft | 458 kts | 290° |
| 2026-05-07 16:04 | 43.77035 | 22.85954 | 36057 ft | 459 kts | 290° |
| 2026-05-07 16:04 | 43.79527 | 22.77809 | 36059 ft | 458 kts | 290° |
| 2026-05-07 16:05 | 43.82006 | 22.69679 | 36057 ft | 458 kts | 290° |
| 2026-05-07 16:05 | 43.84476 | 22.61552 | 36059 ft | 458 kts | 290° |
| 2026-05-07 16:06 | 43.86928 | 22.53461 | 36057 ft | 458 kts | 289° |
| 2026-05-07 16:06 | 43.89390 | 22.45316 | 36059 ft | 458 kts | 290° |
| 2026-05-07 16:07 | 43.92474 | 22.37533 | 36066 ft | 463 kts | 300° |
| 2026-05-07 16:07 | 43.96473 | 22.30497 | 36063 ft | 467 kts | 307° |
| 2026-05-07 16:08 | 44.00748 | 22.23664 | 36060 ft | 468 kts | 307° |
| 2026-05-07 16:08 | 44.05023 | 22.16815 | 36063 ft | 469 kts | 307° |
| 2026-05-07 16:09 | 44.09274 | 22.09927 | 36067 ft | 469 kts | 307° |
| 2026-05-07 16:09 | 44.13507 | 22.03014 | 36060 ft | 469 kts | 307° |
| 2026-05-07 16:10 | 44.17732 | 21.96092 | 36040 ft | 469 kts | 306° |
| 2026-05-07 16:10 | 44.21927 | 21.89205 | 36047 ft | 468 kts | 307° |
| 2026-05-07 16:11 | 44.26136 | 21.82281 | 36049 ft | 467 kts | 306° |
| 2026-05-07 16:11 | 44.30338 | 21.75354 | 36048 ft | 467 kts | 306° |
| 2026-05-07 16:12 | 44.34527 | 21.68428 | 36049 ft | 466 kts | 306° |
| 2026-05-07 16:12 | 44.38700 | 21.61512 | 36055 ft | 464 kts | 306° |
| 2026-05-07 16:13 | 44.42855 | 21.54610 | 36042 ft | 464 kts | 306° |
| 2026-05-07 16:13 | 44.47012 | 21.47687 | 36037 ft | 464 kts | 306° |
| 2026-05-07 16:14 | 44.51122 | 21.40826 | 36039 ft | 463 kts | 306° |
| 2026-05-07 16:14 | 44.55264 | 21.33897 | 36034 ft | 462 kts | 306° |
| 2026-05-07 16:15 | 44.59399 | 21.26961 | 36033 ft | 462 kts | 306° |
| 2026-05-07 16:15 | 44.63517 | 21.20035 | 36029 ft | 462 kts | 306° |
| 2026-05-07 16:16 | 44.67628 | 21.13107 | 36023 ft | 461 kts | 306° |
| 2026-05-07 16:16 | 44.71730 | 21.06176 | 36025 ft | 461 kts | 306° |
| 2026-05-07 16:17 | 44.75797 | 20.99287 | 36020 ft | 460 kts | 306° |
| 2026-05-07 16:17 | 44.79884 | 20.92348 | 36022 ft | 460 kts | 306° |
| 2026-05-07 16:18 | 44.83959 | 20.85412 | 36021 ft | 459 kts | 306° |
| 2026-05-07 16:18 | 44.88024 | 20.78476 | 36019 ft | 459 kts | 306° |
| 2026-05-07 16:19 | 44.92073 | 20.71551 | 36020 ft | 458 kts | 306° |
| 2026-05-07 16:19 | 44.96129 | 20.64596 | 36016 ft | 458 kts | 306° |
| 2026-05-07 16:20 | 45.00184 | 20.57626 | 36005 ft | 459 kts | 306° |
| 2026-05-07 16:20 | 45.04240 | 20.50638 | 36002 ft | 459 kts | 306° |
| 2026-05-07 16:21 | 45.08264 | 20.43686 | 36001 ft | 459 kts | 306° |
| 2026-05-07 16:21 | 45.12322 | 20.36661 | 36002 ft | 459 kts | 306° |
| 2026-05-07 16:22 | 45.16359 | 20.29653 | 36003 ft | 459 kts | 306° |
| 2026-05-07 16:22 | 45.20396 | 20.22628 | 36004 ft | 459 kts | 306° |
| 2026-05-07 16:23 | 45.24428 | 20.15594 | 36009 ft | 459 kts | 305° |
| 2026-05-07 16:23 | 45.28445 | 20.08568 | 35998 ft | 459 kts | 305° |
| 2026-05-07 16:24 | 45.32445 | 20.01556 | 35998 ft | 459 kts | 305° |
| 2026-05-07 16:24 | 45.36469 | 19.94484 | 36004 ft | 459 kts | 305° |
| 2026-05-07 16:25 | 45.40486 | 19.87406 | 36002 ft | 457 kts | 305° |
| 2026-05-07 16:25 | 45.44476 | 19.80360 | 36009 ft | 457 kts | 305° |
| 2026-05-07 16:26 | 45.48442 | 19.73333 | 36010 ft | 459 kts | 305° |
| 2026-05-07 16:26 | 45.52479 | 19.66166 | 36013 ft | 461 kts | 304° |
| 2026-05-07 16:27 | 45.56494 | 19.59020 | 36012 ft | 462 kts | 304° |
| 2026-05-07 16:27 | 45.60484 | 19.51901 | 36012 ft | 462 kts | 304° |
| 2026-05-07 16:28 | 45.64493 | 19.44730 | 36008 ft | 462 kts | 304° |
| 2026-05-07 16:28 | 45.68496 | 19.37552 | 36002 ft | 461 kts | 304° |
| 2026-05-07 16:29 | 45.72475 | 19.30397 | 36007 ft | 460 kts | 304° |
| 2026-05-07 16:29 | 45.76463 | 19.23208 | 36008 ft | 459 kts | 304° |
| 2026-05-07 16:30 | 45.80432 | 19.16035 | 36005 ft | 459 kts | 304° |
| 2026-05-07 16:30 | 45.84385 | 19.08871 | 36006 ft | 458 kts | 304° |
| 2026-05-07 16:31 | 45.88333 | 19.01699 | 36012 ft | 458 kts | 304° |
| 2026-05-07 16:31 | 45.92286 | 18.94485 | 36010 ft | 458 kts | 302° |
| 2026-05-07 16:32 | 45.95678 | 18.86822 | 36012 ft | 454 kts | 295° |
| 2026-05-07 16:32 | 45.98754 | 18.78960 | 36010 ft | 454 kts | 295° |
| 2026-05-07 16:33 | 46.01855 | 18.71023 | 36012 ft | 455 kts | 295° |
| 2026-05-07 16:33 | 46.04971 | 18.63091 | 36017 ft | 455 kts | 295° |
| 2026-05-07 16:34 | 46.08091 | 18.55159 | 36013 ft | 456 kts | 295° |
| 2026-05-07 16:34 | 46.11209 | 18.47214 | 36018 ft | 456 kts | 295° |
| 2026-05-07 16:35 | 46.14328 | 18.39243 | 36016 ft | 456 kts | 295° |
| 2026-05-07 16:35 | 46.17436 | 18.31276 | 36016 ft | 456 kts | 295° |
| 2026-05-07 16:36 | 46.20534 | 18.23308 | 36012 ft | 456 kts | 295° |
| 2026-05-07 16:36 | 46.23635 | 18.15312 | 36008 ft | 455 kts | 295° |
| 2026-05-07 16:37 | 46.26720 | 18.07333 | 36001 ft | 455 kts | 294° |
| 2026-05-07 16:37 | 46.29785 | 17.99382 | 35995 ft | 455 kts | 294° |
| 2026-05-07 16:38 | 46.32856 | 17.91393 | 35998 ft | 455 kts | 294° |
| 2026-05-07 16:38 | 46.35895 | 17.83471 | 35889 ft | 443 kts | 294° |
| 2026-05-07 16:38 | 46.37379 | 17.79596 | 35780 ft | 438 kts | 294° |
| 2026-05-07 16:39 | 46.38853 | 17.75738 | 35570 ft | 435 kts | 294° |
| 2026-05-07 16:39 | 46.40316 | 17.71900 | 35272 ft | 435 kts | 294° |
| 2026-05-07 16:39 | 46.41777 | 17.68058 | 34913 ft | 436 kts | 294° |
| 2026-05-07 16:39 | 46.43233 | 17.64222 | 34549 ft | 437 kts | 294° |
| 2026-05-07 16:40 | 46.44697 | 17.60361 | 34182 ft | 438 kts | 294° |
| 2026-05-07 16:40 | 46.46171 | 17.56472 | 33794 ft | 439 kts | 294° |
| 2026-05-07 16:40 | 46.47638 | 17.52596 | 33349 ft | 440 kts | 294° |
| 2026-05-07 16:40 | 46.49121 | 17.48670 | 32878 ft | 442 kts | 294° |
| 2026-05-07 16:41 | 46.50591 | 17.44776 | 32418 ft | 443 kts | 294° |
| 2026-05-07 16:41 | 46.52069 | 17.40857 | 31909 ft | 445 kts | 294° |
| 2026-05-07 16:41 | 46.53560 | 17.36897 | 31438 ft | 447 kts | 294° |
| 2026-05-07 16:41 | 46.55061 | 17.32903 | 30935 ft | 449 kts | 294° |
| 2026-05-07 16:42 | 46.56560 | 17.28910 | 30430 ft | 451 kts | 294° |
| 2026-05-07 16:42 | 46.58059 | 17.24909 | 30120 ft | 453 kts | 294° |
| 2026-05-07 16:42 | 46.59572 | 17.20864 | 29988 ft | 455 kts | 294° |
| 2026-05-07 16:43 | 46.62579 | 17.12819 | 29975 ft | 451 kts | 294° |
| 2026-05-07 16:43 | 46.65571 | 17.04781 | 29970 ft | 452 kts | 294° |
| 2026-05-07 16:44 | 46.68559 | 16.96732 | 29970 ft | 451 kts | 293° |
| 2026-05-07 16:44 | 46.71538 | 16.88682 | 29960 ft | 451 kts | 293° |
| 2026-05-07 16:45 | 46.74502 | 16.80646 | 29960 ft | 450 kts | 293° |
| 2026-05-07 16:45 | 46.77444 | 16.72646 | 29957 ft | 449 kts | 293° |
| 2026-05-07 16:46 | 46.80391 | 16.64614 | 29951 ft | 449 kts | 293° |
| 2026-05-07 16:46 | 46.81951 | 16.60710 | 29782 ft | 444 kts | 298° |
| 2026-05-07 16:46 | 46.83678 | 16.56982 | 29340 ft | 437 kts | 299° |
| 2026-05-07 16:46 | 46.85397 | 16.53360 | 28929 ft | 434 kts | 300° |
| 2026-05-07 16:47 | 46.87117 | 16.49734 | 28378 ft | 436 kts | 300° |
| 2026-05-07 16:47 | 46.88825 | 16.46107 | 27793 ft | 436 kts | 299° |
| 2026-05-07 16:47 | 46.90550 | 16.42420 | 27222 ft | 434 kts | 299° |
| 2026-05-07 16:47 | 46.92223 | 16.38826 | 26674 ft | 432 kts | 299° |
| 2026-05-07 16:48 | 46.93904 | 16.35203 | 26117 ft | 429 kts | 299° |
| 2026-05-07 16:48 | 46.95599 | 16.31544 | 25575 ft | 427 kts | 299° |
| 2026-05-07 16:48 | 46.97234 | 16.28014 | 25208 ft | 420 kts | 299° |
| 2026-05-07 16:48 | 46.98871 | 16.24473 | 24846 ft | 413 kts | 298° |
| 2026-05-07 16:49 | 47.00325 | 16.20954 | 24477 ft | 405 kts | 292° |
| 2026-05-07 16:49 | 47.01544 | 16.17267 | 24127 ft | 403 kts | 290° |
| 2026-05-07 16:49 | 47.02350 | 16.14746 | 23902 ft | 405 kts | 290° |
| 2026-05-07 16:49 | 47.03930 | 16.09765 | 23418 ft | 408 kts | 290° |
| 2026-05-07 16:50 | 47.05142 | 16.05953 | 23015 ft | 407 kts | 290° |
| 2026-05-07 16:50 | 47.06325 | 16.02248 | 22611 ft | 405 kts | 290° |
| 2026-05-07 16:50 | 47.07132 | 15.99721 | 22357 ft | 404 kts | 290° |
| 2026-05-07 16:50 | 47.08712 | 15.94786 | 21840 ft | 402 kts | 290° |
| 2026-05-07 16:51 | 47.09499 | 15.92326 | 21585 ft | 401 kts | 290° |
| 2026-05-07 16:51 | 47.10692 | 15.88595 | 21192 ft | 399 kts | 290° |
| 2026-05-07 16:51 | 47.11853 | 15.84960 | 20823 ft | 396 kts | 290° |
| 2026-05-07 16:51 | 47.13017 | 15.81309 | 20450 ft | 394 kts | 291° |
| 2026-05-07 16:52 | 47.14172 | 15.77686 | 20078 ft | 391 kts | 290° |
| 2026-05-07 16:52 | 47.15319 | 15.74083 | 19953 ft | 385 kts | 290° |
| 2026-05-07 16:52 | 47.16446 | 15.70537 | 19951 ft | 383 kts | 290° |
| 2026-05-07 16:52 | 47.17576 | 15.66971 | 19960 ft | 385 kts | 290° |
| 2026-05-07 16:53 | 47.18703 | 15.63405 | 19958 ft | 388 kts | 290° |
| 2026-05-07 16:53 | 47.19846 | 15.59787 | 19958 ft | 389 kts | 290° |
| 2026-05-07 16:53 | 47.20983 | 15.56186 | 19944 ft | 388 kts | 290° |
| 2026-05-07 16:53 | 47.22115 | 15.52599 | 19945 ft | 387 kts | 290° |
| 2026-05-07 16:54 | 47.23252 | 15.48990 | 19971 ft | 387 kts | 290° |
| 2026-05-07 16:54 | 47.24376 | 15.45414 | 19946 ft | 386 kts | 290° |
| 2026-05-07 16:54 | 47.25505 | 15.41818 | 19973 ft | 386 kts | 290° |
| 2026-05-07 16:54 | 47.26628 | 15.38241 | 19948 ft | 385 kts | 290° |
| 2026-05-07 16:55 | 47.27750 | 15.34656 | 19983 ft | 384 kts | 290° |
| 2026-05-07 16:55 | 47.28864 | 15.31090 | 19962 ft | 385 kts | 290° |
| 2026-05-07 16:55 | 47.29991 | 15.27481 | 19907 ft | 386 kts | 290° |
| 2026-05-07 16:55 | 47.31115 | 15.23871 | 19666 ft | 389 kts | 290° |
| 2026-05-07 16:56 | 47.32243 | 15.20250 | 19198 ft | 388 kts | 290° |
| 2026-05-07 16:56 | 47.33365 | 15.16642 | 18762 ft | 385 kts | 290° |
| 2026-05-07 16:56 | 47.35567 | 15.09554 | 17811 ft | 378 kts | 290° |
| 2026-05-07 16:57 | 47.36653 | 15.06048 | 17342 ft | 375 kts | 290° |
| 2026-05-07 16:57 | 47.37730 | 15.02564 | 16845 ft | 373 kts | 290° |
| 2026-05-07 16:57 | 47.38811 | 14.99109 | 16353 ft | 371 kts | 291° |
| 2026-05-07 16:57 | 47.39951 | 14.95709 | 15878 ft | 369 kts | 292° |
| 2026-05-07 16:58 | 47.41113 | 14.92348 | 15425 ft | 366 kts | 292° |
| 2026-05-07 16:58 | 47.42269 | 14.89022 | 15084 ft | 360 kts | 292° |
| 2026-05-07 16:58 | 47.43401 | 14.85760 | 15057 ft | 356 kts | 292° |
| 2026-05-07 16:58 | 47.44522 | 14.82519 | 15034 ft | 352 kts | 292° |
| 2026-05-07 16:59 | 47.45625 | 14.79306 | 15030 ft | 351 kts | 292° |
| 2026-05-07 16:59 | 47.46729 | 14.76068 | 15038 ft | 352 kts | 292° |
| 2026-05-07 16:59 | 47.47837 | 14.72815 | 14911 ft | 355 kts | 292° |
| 2026-05-07 16:59 | 47.48933 | 14.69591 | 14662 ft | 354 kts | 292° |
| 2026-05-07 17:00 | 47.50045 | 14.66316 | 14385 ft | 350 kts | 292° |
| 2026-05-07 17:00 | 47.51119 | 14.63155 | 14166 ft | 344 kts | 293° |
| 2026-05-07 17:00 | 47.52202 | 14.59967 | 13958 ft | 341 kts | 292° |
| 2026-05-07 17:00 | 47.53260 | 14.56836 | 13708 ft | 340 kts | 293° |
| 2026-05-07 17:01 | 47.54301 | 14.53752 | 13452 ft | 340 kts | 292° |
| 2026-05-07 17:01 | 47.55358 | 14.50619 | 13194 ft | 340 kts | 292° |
| 2026-05-07 17:01 | 47.56410 | 14.47501 | 12920 ft | 339 kts | 292° |
| 2026-05-07 17:01 | 47.57457 | 14.44382 | 12645 ft | 337 kts | 292° |
| 2026-05-07 17:02 | 47.58501 | 14.41275 | 12415 ft | 336 kts | 292° |
| 2026-05-07 17:02 | 47.59537 | 14.38186 | 12158 ft | 334 kts | 292° |
| 2026-05-07 17:02 | 47.60565 | 14.35118 | 11904 ft | 334 kts | 292° |
| 2026-05-07 17:02 | 47.61602 | 14.32026 | 11663 ft | 333 kts | 292° |
| 2026-05-07 17:03 | 47.62629 | 14.28958 | 11398 ft | 333 kts | 292° |
| 2026-05-07 17:03 | 47.63655 | 14.25893 | 11156 ft | 331 kts | 292° |
| 2026-05-07 17:03 | 47.64666 | 14.22864 | 11096 ft | 324 kts | 292° |
| 2026-05-07 17:03 | 47.65661 | 14.19878 | 11028 ft | 323 kts | 292° |
| 2026-05-07 17:04 | 47.66662 | 14.16873 | 11049 ft | 326 kts | 292° |
| 2026-05-07 17:04 | 47.67670 | 14.13843 | 11036 ft | 329 kts | 292° |
| 2026-05-07 17:04 | 47.68684 | 14.10789 | 11018 ft | 329 kts | 292° |
| 2026-05-07 17:04 | 47.69678 | 14.07787 | 10998 ft | 327 kts | 292° |
| 2026-05-07 17:05 | 47.70686 | 14.04745 | 11051 ft | 322 kts | 292° |
| 2026-05-07 17:05 | 47.71680 | 14.01744 | 11015 ft | 328 kts | 292° |
| 2026-05-07 17:05 | 47.72680 | 13.98725 | 11047 ft | 331 kts | 292° |
| 2026-05-07 17:05 | 47.73711 | 13.95602 | 11021 ft | 333 kts | 292° |
| 2026-05-07 17:06 | 47.74694 | 13.92499 | 11009 ft | 329 kts | 290° |
| 2026-05-07 17:06 | 47.75509 | 13.89394 | 11021 ft | 328 kts | 287° |
| 2026-05-07 17:06 | 47.76288 | 13.86203 | 11014 ft | 327 kts | 287° |
| 2026-05-07 17:06 | 47.77064 | 13.83015 | 11016 ft | 327 kts | 287° |
| 2026-05-07 17:07 | 47.77841 | 13.79870 | 11016 ft | 319 kts | 288° |
| 2026-05-07 17:07 | 47.78605 | 13.76830 | 10901 ft | 308 kts | 288° |
| 2026-05-07 17:07 | 47.79350 | 13.73868 | 10545 ft | 306 kts | 288° |
| 2026-05-07 17:07 | 47.80096 | 13.70899 | 10190 ft | 305 kts | 288° |
| 2026-05-07 17:08 | 47.80836 | 13.67953 | 9824 ft | 303 kts | 289° |
| 2026-05-07 17:08 | 47.81567 | 13.65046 | 9455 ft | 301 kts | 289° |
| 2026-05-07 17:08 | 47.82293 | 13.62156 | 9242 ft | 293 kts | 288° |
| 2026-05-07 17:08 | 47.82994 | 13.59361 | 9035 ft | 287 kts | 288° |
| 2026-05-07 17:09 | 47.83687 | 13.56587 | 8799 ft | 282 kts | 288° |
| 2026-05-07 17:09 | 47.84365 | 13.53871 | 8605 ft | 279 kts | 288° |
| 2026-05-07 17:09 | 47.85038 | 13.51167 | 8393 ft | 277 kts | 288° |
| 2026-05-07 17:09 | 47.85707 | 13.48484 | 8205 ft | 276 kts | 288° |
| 2026-05-07 17:10 | 47.86375 | 13.45806 | 8084 ft | 273 kts | 288° |
| 2026-05-07 17:10 | 47.87026 | 13.43189 | 7998 ft | 275 kts | 288° |
| 2026-05-07 17:10 | 47.87704 | 13.40448 | 7741 ft | 281 kts | 288° |
| 2026-05-07 17:10 | 47.88381 | 13.37717 | 7520 ft | 279 kts | 288° |
| 2026-05-07 17:11 | 47.89049 | 13.35025 | 7269 ft | 275 kts | 288° |
| 2026-05-07 17:11 | 47.89703 | 13.32382 | 7017 ft | 272 kts | 288° |
| 2026-05-07 17:11 | 47.90356 | 13.29739 | 6763 ft | 268 kts | 289° |
| 2026-05-07 17:11 | 47.90990 | 13.27179 | 6518 ft | 265 kts | 288° |
| 2026-05-07 17:12 | 47.91620 | 13.24617 | 6268 ft | 263 kts | 288° |
| 2026-05-07 17:12 | 47.92258 | 13.22025 | 6016 ft | 263 kts | 288° |
| 2026-05-07 17:12 | 47.92876 | 13.19513 | 5799 ft | 260 kts | 289° |
| 2026-05-07 17:12 | 47.93494 | 13.17001 | 5594 ft | 255 kts | 289° |
| 2026-05-07 17:13 | 47.94097 | 13.14543 | 5365 ft | 251 kts | 288° |
| 2026-05-07 17:13 | 47.94690 | 13.12125 | 5148 ft | 245 kts | 288° |
| 2026-05-07 17:13 | 47.95261 | 13.09795 | 5079 ft | 234 kts | 289° |
| 2026-05-07 17:13 | 47.95803 | 13.07580 | 4954 ft | 223 kts | 289° |
| 2026-05-07 17:14 | 47.96329 | 13.05427 | 4835 ft | 218 kts | 289° |
| 2026-05-07 17:14 | 47.96837 | 13.03351 | 4820 ft | 207 kts | 288° |
| 2026-05-07 17:14 | 47.97328 | 13.01335 | 4710 ft | 207 kts | 289° |
| 2026-05-07 17:14 | 47.97816 | 12.99332 | 4643 ft | 207 kts | 289° |
| 2026-05-07 17:15 | 47.98309 | 12.97305 | 4604 ft | 205 kts | 289° |
| 2026-05-07 17:15 | 47.98785 | 12.95354 | 4511 ft | 194 kts | 289° |
| 2026-05-07 17:15 | 47.99095 | 12.93492 | 4343 ft | 178 kts | 265° |
| 2026-05-07 17:15 | 47.98772 | 12.91753 | 4242 ft | 173 kts | 240° |
| 2026-05-07 17:16 | 47.98097 | 12.90271 | 4195 ft | 173 kts | 225° |
| 2026-05-07 17:16 | 47.97045 | 12.89488 | 4079 ft | 172 kts | 180° |
| 2026-05-07 17:16 | 47.95898 | 12.89929 | 4039 ft | 172 kts | 158° |
| 2026-05-07 17:16 | 47.94791 | 12.90598 | 3998 ft | 174 kts | 158° |
| 2026-05-07 17:17 | 47.93667 | 12.91296 | 3986 ft | 172 kts | 158° |
| 2026-05-07 17:17 | 47.92590 | 12.91978 | 3984 ft | 169 kts | 157° |
| 2026-05-07 17:17 | 47.91522 | 12.92658 | 3987 ft | 167 kts | 157° |
| 2026-05-07 17:17 | 47.90410 | 12.93366 | 3796 ft | 177 kts | 157° |
| 2026-05-07 17:18 | 47.89291 | 12.94080 | 3596 ft | 172 kts | 157° |
| 2026-05-07 17:18 | 47.88210 | 12.94767 | 3347 ft | 167 kts | 157° |
| 2026-05-07 17:18 | 47.87179 | 12.95422 | 3129 ft | 155 kts | 158° |
| 2026-05-07 17:18 | 47.86192 | 12.96048 | 2868 ft | 155 kts | 157° |
| 2026-05-07 17:19 | 47.85203 | 12.96677 | 2575 ft | 155 kts | 156° |
| 2026-05-07 17:19 | 47.84212 | 12.97306 | 2278 ft | 155 kts | 156° |
| 2026-05-07 17:19 | 47.83231 | 12.97909 | 2062 ft | 151 kts | 156° |
| 2026-05-07 17:19 | 47.82280 | 12.98532 | 1846 ft | 149 kts | 155° |
| 2026-05-07 17:20 | 47.81341 | 12.99130 | 1695 ft | 144 kts | 156° |
| 2026-05-07 17:20 | 47.80422 | 12.99697 | 1499 ft | 142 kts | 155° |
| 2026-05-07 17:20 | 47.79539 | 13.00256 | 1428 ft | 130 kts | 155° |
| 2026-05-07 17:20 | 47.78906 | 13.00663 | 1428 ft | 66 kts | 157° |
| 2026-05-07 17:21 | 47.78597 | 13.00830 | 1424 ft | 29 kts | 185° |
| 2026-05-07 17:21 | 47.78555 | 13.00786 | 1430 ft | 6 kts | 230° |
| 2026-05-07 17:21 | 47.78534 | 13.00729 | 1426 ft | 6 kts | 248° |
| 2026-05-07 17:21 | 47.78525 | 13.00678 | 1425 ft | 1 kts | 275° |
| 2026-05-07 17:22 | 47.78564 | 13.00616 | 1429 ft | 11 kts | 332° |
| 2026-05-07 17:22 | 47.78632 | 13.00572 | 1428 ft | 11 kts | 336° |
| 2026-05-07 17:22 | 47.78701 | 13.00527 | 1426 ft | 11 kts | 336° |
| 2026-05-07 17:22 | 47.78768 | 13.00484 | 1428 ft | 11 kts | 336° |
| 2026-05-07 17:23 | 47.78839 | 13.00439 | 1427 ft | 11 kts | 336° |
| 2026-05-07 17:23 | 47.78909 | 13.00394 | 1429 ft | 11 kts | 338° |
| 2026-05-07 17:23 | 47.78983 | 13.00349 | 1430 ft | 11 kts | 336° |
| 2026-05-07 17:23 | 47.79055 | 13.00303 | 1427 ft | 11 kts | 337° |
| 2026-05-07 17:24 | 47.79128 | 13.00258 | 1428 ft | 11 kts | 337° |
| 2026-05-07 17:24 | 47.79200 | 13.00212 | 1429 ft | 11 kts | 337° |
| 2026-05-07 17:24 | 47.79273 | 13.00166 | 1429 ft | 11 kts | 336° |
| 2026-05-07 17:24 | 47.79340 | 13.00121 | 1431 ft | 10 kts | 330° |
| 2026-05-07 17:25 | 47.79350 | 13.00058 | 1428 ft | 6 kts | 257° |
| 2026-05-07 17:25 | 47.79335 | 12.99994 | 1429 ft | 7 kts | 250° |
| 2026-05-07 17:25 | 47.79301 | 12.99957 | 1427 ft | 7 kts | 186° |
| 2026-05-07 17:25 | 47.79270 | 12.99963 | 1428 ft | 4 kts | 172° |
| 2026-05-07 17:26 | 47.79251 | 12.99946 | 1430 ft | 3 kts | 242° |
| 2026-05-07 17:26 | 47.79249 | 12.99911 | 1427 ft | 3 kts | 270° |
| 2026-05-07 17:26 | 47.79251 | 12.99882 | 1430 ft | 2 kts | 278° |
| 2026-05-07 17:26 | 47.79254 | 12.99858 | 1427 ft | 2 kts | 280° |
| 2026-05-07 17:27 | 47.79256 | 12.99840 | 1427 ft | 0 kts | 281° |